createdAt,value
2022-11-09T00:01:51.975Z,11.30
2022-11-09T00:04:18.784Z,11.30
2022-11-09T00:06:45.709Z,11.30
2022-11-09T00:09:12.537Z,11.30
2022-11-09T00:11:39.342Z,11.30
2022-11-09T00:14:06.250Z,11.30
2022-11-09T00:16:33.274Z,11.30
2022-11-09T00:19:00.135Z,11.30
2022-11-09T00:21:26.965Z,11.40
2022-11-09T00:23:54.129Z,11.40
2022-11-09T00:26:21.208Z,11.40
2022-11-09T00:28:48.108Z,11.40
2022-11-09T00:31:19.396Z,11.40
2022-11-09T00:33:50.007Z,11.40
2022-11-09T00:36:16.975Z,11.40
2022-11-09T00:38:46.516Z,11.40
2022-11-09T00:41:13.320Z,11.30
2022-11-09T00:43:40.179Z,11.30
2022-11-09T00:46:07.560Z,11.30
2022-11-09T00:48:34.971Z,11.30
2022-11-09T00:51:01.891Z,11.30
2022-11-09T00:53:28.738Z,11.30
2022-11-09T00:56:06.582Z,11.30
2022-11-09T00:58:34.813Z,11.20
2022-11-09T01:01:07.152Z,11.20
2022-11-09T01:03:34.058Z,11.30
2022-11-09T01:06:00.899Z,11.30
2022-11-09T01:08:27.738Z,11.20
2022-11-09T01:10:54.613Z,11.30
2022-11-09T01:13:21.605Z,11.30
2022-11-09T01:15:50.771Z,11.30
2022-11-09T01:18:18.479Z,11.30
2022-11-09T01:20:46.711Z,11.30
2022-11-09T01:23:14.460Z,11.30
2022-11-09T01:25:41.404Z,11.30
2022-11-09T01:28:08.536Z,11.30
2022-11-09T01:30:36.628Z,11.30
2022-11-09T01:33:07.362Z,11.20
2022-11-09T01:35:35.145Z,11.20
2022-11-09T01:38:02.864Z,11.20
2022-11-09T01:40:30.514Z,11.20
2022-11-09T01:42:57.532Z,11.20
2022-11-09T01:45:27.342Z,11.20
2022-11-09T01:48:06.847Z,11.20
2022-11-09T01:50:56.533Z,11.20
2022-11-09T01:53:28.075Z,11.20
2022-11-09T01:55:56.486Z,11.20
2022-11-09T01:58:37.173Z,11.30
2022-11-09T02:01:11.206Z,11.30
2022-11-09T02:03:43.297Z,11.40
2022-11-09T02:06:11.497Z,11.30
2022-11-09T02:08:38.512Z,11.30
2022-11-09T02:11:10.631Z,11.20
2022-11-09T02:13:48.463Z,11.20
2022-11-09T02:16:15.480Z,11.20
2022-11-09T02:18:49.240Z,11.20
2022-11-09T02:21:16.056Z,11.10
2022-11-09T02:23:42.880Z,11.10
2022-11-09T02:26:11.499Z,11.10
2022-11-09T02:28:38.964Z,11.10
2022-11-09T02:31:06.081Z,11.00
2022-11-09T02:33:51.421Z,11.00
2022-11-09T02:36:18.217Z,11.10
2022-11-09T02:38:45.149Z,11.00
2022-11-09T02:41:11.982Z,11.10
2022-11-09T02:43:38.790Z,11.10
2022-11-09T02:46:06.053Z,11.20
2022-11-09T02:48:32.887Z,11.20
2022-11-09T02:50:59.683Z,11.20
2022-11-09T02:53:26.499Z,11.30
2022-11-09T02:55:53.374Z,11.30
2022-11-09T02:58:20.212Z,11.30
2022-11-09T03:00:47.038Z,11.30
2022-11-09T03:03:13.896Z,11.30
2022-11-09T03:05:40.748Z,11.30
2022-11-09T03:08:07.619Z,11.40
2022-11-09T03:10:34.470Z,11.40
2022-11-09T03:13:01.253Z,11.40
2022-11-09T03:15:28.152Z,11.40
2022-11-09T03:17:55.039Z,11.40
2022-11-09T03:20:21.945Z,11.40
2022-11-09T03:22:48.742Z,11.40
2022-11-09T03:25:15.666Z,11.50
2022-11-09T03:27:42.484Z,11.40
2022-11-09T03:30:09.744Z,11.50
2022-11-09T03:32:36.544Z,11.50
2022-11-09T03:35:03.417Z,11.50
2022-11-09T03:37:30.344Z,11.50
2022-11-09T03:39:59.045Z,11.40
2022-11-09T03:42:25.863Z,11.30
2022-11-09T03:44:52.711Z,11.30
2022-11-09T03:47:19.536Z,11.20
2022-11-09T03:49:46.430Z,11.20
2022-11-09T03:52:13.216Z,11.10
2022-11-09T03:54:40.077Z,11.10
2022-11-09T03:57:06.918Z,11.00
2022-11-09T03:59:33.703Z,11.00
2022-11-09T04:02:00.582Z,11.00
2022-11-09T04:04:27.470Z,11.00
2022-11-09T04:06:54.303Z,11.00
2022-11-09T04:09:21.129Z,11.00
2022-11-09T04:11:48.237Z,10.90
2022-11-09T04:14:15.049Z,11.00
2022-11-09T04:16:42.127Z,11.00
2022-11-09T04:19:09.000Z,11.00
2022-11-09T04:21:35.981Z,11.00
2022-11-09T04:24:02.824Z,11.00
2022-11-09T04:26:29.648Z,11.00
2022-11-09T04:28:56.469Z,11.10
2022-11-09T04:31:27.872Z,11.10
2022-11-09T04:33:55.641Z,11.10
2022-11-09T04:36:22.455Z,11.00
2022-11-09T04:38:49.343Z,11.00
2022-11-09T04:41:17.391Z,11.00
2022-11-09T04:43:44.194Z,11.00
2022-11-09T04:46:11.179Z,11.00
2022-11-09T04:48:38.064Z,11.00
2022-11-09T04:51:08.333Z,11.00
2022-11-09T04:53:35.482Z,11.00
2022-11-09T04:56:02.545Z,11.10
2022-11-09T04:58:29.417Z,11.10
2022-11-09T05:01:01.358Z,11.20
2022-11-09T05:03:28.232Z,11.20
2022-11-09T05:05:55.072Z,11.20
2022-11-09T05:08:22.069Z,11.20
2022-11-09T05:10:48.950Z,11.20
2022-11-09T05:13:15.795Z,11.20
2022-11-09T05:15:42.706Z,11.30
2022-11-09T05:18:10.278Z,11.30
2022-11-09T05:20:37.114Z,11.30
2022-11-09T05:23:22.900Z,11.20
2022-11-09T05:25:50.090Z,11.10
2022-11-09T05:28:16.995Z,11.00
2022-11-09T05:30:43.774Z,10.90
2022-11-09T05:33:10.622Z,10.80
2022-11-09T05:35:37.467Z,10.80
2022-11-09T05:38:04.280Z,10.80
2022-11-09T05:40:32.291Z,10.80
2022-11-09T05:42:59.150Z,10.80
2022-11-09T05:45:43.384Z,10.80
2022-11-09T05:48:14.518Z,10.80
2022-11-09T05:50:41.737Z,10.70
2022-11-09T05:53:08.892Z,10.70
2022-11-09T05:55:35.776Z,10.70
2022-11-09T05:58:02.653Z,10.60
2022-11-09T06:00:29.466Z,10.60
2022-11-09T06:03:05.967Z,10.60
2022-11-09T06:05:34.305Z,10.50
2022-11-09T06:08:13.140Z,10.50
2022-11-09T06:10:40.425Z,10.50
2022-11-09T06:13:07.286Z,10.50
2022-11-09T06:15:34.124Z,10.50
2022-11-09T06:18:00.973Z,10.40
2022-11-09T06:20:28.222Z,10.40
2022-11-09T06:23:03.053Z,10.40
2022-11-09T06:25:31.815Z,10.40
2022-11-09T06:27:58.847Z,10.40
2022-11-09T06:30:25.837Z,10.40
2022-11-09T06:32:57.513Z,10.40
2022-11-09T06:35:24.394Z,10.40
2022-11-09T06:37:58.389Z,10.40
2022-11-09T06:40:25.354Z,10.40
2022-11-09T06:42:52.831Z,10.40
2022-11-09T06:45:19.697Z,10.30
2022-11-09T06:47:46.518Z,10.30
2022-11-09T06:50:13.377Z,10.30
2022-11-09T06:52:40.240Z,10.30
2022-11-09T06:55:08.426Z,10.30
2022-11-09T06:57:35.269Z,10.30
2022-11-09T07:00:02.434Z,10.30
2022-11-09T07:02:29.336Z,10.30
2022-11-09T07:04:56.265Z,10.20
2022-11-09T07:07:28.007Z,10.20
2022-11-09T07:09:55.954Z,10.20
2022-11-09T07:12:22.986Z,10.30
2022-11-09T07:14:49.905Z,10.30
2022-11-09T07:17:16.837Z,10.30
2022-11-09T07:19:43.648Z,10.30
2022-11-09T07:22:10.531Z,10.30
2022-11-09T07:24:37.366Z,10.40
2022-11-09T07:27:04.261Z,10.40
2022-11-09T07:29:31.375Z,10.40
2022-11-09T07:31:58.235Z,10.40
2022-11-09T07:34:25.174Z,10.40
2022-11-09T07:36:54.993Z,10.40
2022-11-09T07:39:21.902Z,10.40
2022-11-09T07:41:49.083Z,10.50
2022-11-09T07:44:18.418Z,10.40
2022-11-09T07:46:47.874Z,10.40
2022-11-09T07:49:15.617Z,10.40
2022-11-09T07:51:42.661Z,10.40
2022-11-09T07:54:09.659Z,10.40
2022-11-09T07:56:36.978Z,10.40
2022-11-09T07:59:04.247Z,10.40
2022-11-09T08:01:31.391Z,10.30
2022-11-09T08:03:58.223Z,10.30
2022-11-09T08:06:28.096Z,10.30
2022-11-09T08:08:55.471Z,10.30
2022-11-09T08:11:22.352Z,10.30
2022-11-09T08:13:49.316Z,10.30
2022-11-09T08:16:16.283Z,10.30
2022-11-09T08:18:43.120Z,10.40
2022-11-09T08:21:09.915Z,10.40
2022-11-09T08:23:36.771Z,10.40
2022-11-09T08:26:04.928Z,10.40
2022-11-09T08:28:32.262Z,10.40
2022-11-09T08:31:00.838Z,10.50
2022-11-09T08:33:29.012Z,10.60
2022-11-09T08:35:55.919Z,10.70
2022-11-09T08:38:23.105Z,10.70
2022-11-09T08:40:50.263Z,10.80
2022-11-09T08:43:17.198Z,10.80
2022-11-09T08:45:44.148Z,10.90
2022-11-09T08:48:11.144Z,10.90
2022-11-09T08:50:38.153Z,10.90
2022-11-09T08:53:05.463Z,10.90
2022-11-09T08:55:32.437Z,10.90
2022-11-09T08:58:00.312Z,10.90
2022-11-09T09:00:27.180Z,10.90
2022-11-09T09:02:54.043Z,10.90
2022-11-09T09:05:21.090Z,10.90
2022-11-09T09:07:47.943Z,11.00
2022-11-09T09:10:14.893Z,11.00
2022-11-09T09:12:41.959Z,11.10
2022-11-09T09:15:09.304Z,11.10
2022-11-09T09:17:36.407Z,11.20
2022-11-09T09:20:04.141Z,11.30
2022-11-09T09:22:32.317Z,11.30
2022-11-09T09:24:59.450Z,11.40
2022-11-09T09:27:26.329Z,11.40
2022-11-09T09:29:53.246Z,11.40
2022-11-09T09:32:20.112Z,11.40
2022-11-09T09:34:47.081Z,11.40
2022-11-09T09:37:14.155Z,11.40
2022-11-09T09:39:41.003Z,11.40
2022-11-09T09:42:09.119Z,11.40
2022-11-09T09:45:04.955Z,11.40
2022-11-09T09:48:00.112Z,11.40
2022-11-09T09:50:40.426Z,11.40
2022-11-09T09:53:24.147Z,11.40
2022-11-09T09:55:56.140Z,11.40
2022-11-09T09:58:26.594Z,11.40
2022-11-09T10:00:57.228Z,11.40
2022-11-09T10:03:24.198Z,11.50
2022-11-09T10:05:51.106Z,11.50
2022-11-09T10:08:33.086Z,11.60
2022-11-09T10:11:11.942Z,11.60
2022-11-09T10:14:22.060Z,11.60
2022-11-09T10:17:01.754Z,11.70
2022-11-09T10:20:00.008Z,11.80
2022-11-09T10:22:36.176Z,11.80
2022-11-09T10:25:23.688Z,11.80
2022-11-09T10:27:57.725Z,11.80
2022-11-09T10:30:26.384Z,11.80
2022-11-09T10:33:10.310Z,11.80
2022-11-09T10:36:07.878Z,11.80
2022-11-09T10:38:42.810Z,11.80
2022-11-09T10:41:18.739Z,11.80
2022-11-09T10:43:45.794Z,11.80
2022-11-09T10:46:12.653Z,11.80
2022-11-09T10:48:40.009Z,11.80
2022-11-09T10:51:27.031Z,11.90
2022-11-09T10:54:20.147Z,11.90
2022-11-09T10:57:05.601Z,12.00
2022-11-09T10:59:41.135Z,12.00
2022-11-09T11:02:26.475Z,12.10
2022-11-09T11:05:19.397Z,12.10
2022-11-09T11:07:46.579Z,12.20
2022-11-09T11:10:16.539Z,12.20
2022-11-09T11:12:44.510Z,12.20
2022-11-09T11:15:36.015Z,12.20
2022-11-09T11:18:04.270Z,12.20
2022-11-09T11:20:35.622Z,12.20
2022-11-09T11:23:12.863Z,12.20
2022-11-09T11:26:00.967Z,12.30
2022-11-09T11:28:34.885Z,12.40
2022-11-09T11:31:02.135Z,12.40
2022-11-09T11:33:29.824Z,12.50
2022-11-09T11:36:00.401Z,12.50
2022-11-09T11:38:32.447Z,12.60
2022-11-09T11:41:11.647Z,12.60
2022-11-09T11:43:48.343Z,12.60
2022-11-09T11:46:48.275Z,12.60
2022-11-09T11:49:56.348Z,12.60
2022-11-09T11:52:38.170Z,12.60
2022-11-09T11:55:40.627Z,12.60
2022-11-09T11:58:31.702Z,12.70
2022-11-09T12:01:14.875Z,12.70
2022-11-09T12:04:06.564Z,12.70
2022-11-09T12:06:37.199Z,12.70
2022-11-09T12:09:33.762Z,12.70
2022-11-09T12:12:29.805Z,12.70
2022-11-09T12:15:11.568Z,12.80
2022-11-09T12:17:43.289Z,12.80
2022-11-09T12:20:45.689Z,12.90
2022-11-09T12:23:25.230Z,13.00
2022-11-09T12:26:02.977Z,13.10
2022-11-09T12:28:29.778Z,13.20
2022-11-09T12:31:05.090Z,13.10
2022-11-09T12:33:43.389Z,13.20
2022-11-09T12:36:24.665Z,13.20
2022-11-09T12:38:58.203Z,13.20
2022-11-09T12:41:27.773Z,13.20
2022-11-09T12:44:00.373Z,13.30
2022-11-09T12:46:31.076Z,13.30
2022-11-09T12:48:59.389Z,13.30
2022-11-09T12:51:26.269Z,13.30
2022-11-09T12:53:53.133Z,13.40
2022-11-09T12:56:20.009Z,13.50
2022-11-09T12:58:46.950Z,13.50
2022-11-09T13:01:34.653Z,13.50
2022-11-09T13:04:02.670Z,13.40
2022-11-09T13:06:34.200Z,13.50
2022-11-09T13:09:05.983Z,13.60
2022-11-09T13:11:46.947Z,13.60
2022-11-09T13:14:22.939Z,13.60
2022-11-09T13:16:50.639Z,13.60
2022-11-09T13:19:35.933Z,13.50
2022-11-09T13:22:12.151Z,13.50
2022-11-09T13:24:55.306Z,13.50
2022-11-09T13:27:47.190Z,13.50
2022-11-09T13:30:36.230Z,13.50
2022-11-09T13:33:06.172Z,13.40
2022-11-09T13:35:42.212Z,13.40
2022-11-09T13:38:18.760Z,13.60
2022-11-09T13:40:49.785Z,13.70
2022-11-09T13:43:39.310Z,13.80
2022-11-09T13:46:24.467Z,13.80
2022-11-09T13:48:53.219Z,13.90
2022-11-09T13:51:41.385Z,13.90
2022-11-09T13:54:27.159Z,14.00
2022-11-09T13:56:54.055Z,13.90
2022-11-09T13:59:32.813Z,13.90
2022-11-09T14:02:00.971Z,13.90
2022-11-09T14:04:33.674Z,13.90
2022-11-09T14:07:02.088Z,13.80
2022-11-09T14:09:29.054Z,13.80
2022-11-09T14:11:58.903Z,13.70
2022-11-09T14:14:50.188Z,13.60
2022-11-09T14:17:39.997Z,13.50
2022-11-09T14:20:31.539Z,13.50
2022-11-09T14:22:58.339Z,13.40
2022-11-09T14:25:25.223Z,13.40
2022-11-09T14:27:58.349Z,13.40
2022-11-09T14:30:30.475Z,13.50
2022-11-09T14:32:58.291Z,13.50
2022-11-09T14:35:29.519Z,13.40
2022-11-09T14:37:57.021Z,13.40
2022-11-09T14:40:34.902Z,13.30
2022-11-09T14:43:03.183Z,13.30
2022-11-09T14:45:30.166Z,13.30
2022-11-09T14:47:58.994Z,13.30
2022-11-09T14:50:36.714Z,13.30
2022-11-09T14:53:04.857Z,13.30
2022-11-09T14:55:39.904Z,13.30
2022-11-09T14:58:09.823Z,13.40
2022-11-09T15:00:36.758Z,13.40
2022-11-09T15:03:22.408Z,13.40
2022-11-09T15:05:49.236Z,13.40
2022-11-09T15:08:20.749Z,13.40
2022-11-09T15:10:54.049Z,13.50
2022-11-09T15:13:37.895Z,13.50
2022-11-09T15:16:05.834Z,13.50
2022-11-09T15:18:34.869Z,13.40
2022-11-09T15:21:19.643Z,13.40
2022-11-09T15:23:50.228Z,13.40
2022-11-09T15:26:25.878Z,13.30
2022-11-09T15:28:52.763Z,13.30
2022-11-09T15:31:22.712Z,13.20
2022-11-09T15:33:52.524Z,13.20
2022-11-09T15:36:33.298Z,13.20
2022-11-09T15:39:09.082Z,13.10
2022-11-09T15:41:36.753Z,13.10
2022-11-09T15:44:04.478Z,13.00
2022-11-09T15:49:18.276Z,12.90
2022-11-09T15:51:45.120Z,12.80
2022-11-09T15:54:12.156Z,12.80
2022-11-09T15:56:39.265Z,12.80
2022-11-09T15:59:08.438Z,12.70
2022-11-09T16:01:35.320Z,12.60
2022-11-09T16:04:02.354Z,12.60
2022-11-09T16:06:30.064Z,12.60
2022-11-09T16:08:56.972Z,12.50
2022-11-09T16:11:23.839Z,12.40
2022-11-09T16:13:50.679Z,12.40
2022-11-09T16:16:17.609Z,12.30
2022-11-09T16:18:44.543Z,12.30
2022-11-09T16:21:13.588Z,12.30
2022-11-09T16:23:40.540Z,12.30
2022-11-09T16:26:09.361Z,12.20
2022-11-09T16:28:37.324Z,12.20
2022-11-09T16:31:04.278Z,12.20
2022-11-09T16:33:31.201Z,12.10
2022-11-09T16:35:59.879Z,12.00
2022-11-09T16:38:28.967Z,12.00
2022-11-09T16:40:55.847Z,12.00
2022-11-09T16:43:22.675Z,12.00
2022-11-09T16:45:49.898Z,12.00
2022-11-09T16:48:17.032Z,11.90
2022-11-09T16:50:44.390Z,11.90
2022-11-09T16:53:11.238Z,11.90
2022-11-09T16:55:38.095Z,11.90
2022-11-09T16:58:05.033Z,11.80
2022-11-09T17:00:55.911Z,11.80
2022-11-09T17:03:18.762Z,11.80
2022-11-09T17:05:45.634Z,11.80
2022-11-09T17:08:12.578Z,11.80
2022-11-09T17:10:43.988Z,11.80
2022-11-09T17:13:11.209Z,11.80
2022-11-09T17:15:48.819Z,11.80
2022-11-09T17:18:15.757Z,11.80
2022-11-09T17:20:46.789Z,11.80
2022-11-09T17:23:14.228Z,11.80
2022-11-09T17:25:41.068Z,11.70
2022-11-09T17:28:07.915Z,11.70
2022-11-09T17:30:34.982Z,11.70
2022-11-09T17:33:01.866Z,11.60
2022-11-09T17:35:29.153Z,11.60
2022-11-09T17:37:55.987Z,11.60
2022-11-09T17:40:22.867Z,11.50
2022-11-09T17:42:49.725Z,11.50
2022-11-09T17:45:16.545Z,11.50
2022-11-09T17:47:43.346Z,11.50
2022-11-09T17:50:10.391Z,11.50
2022-11-09T17:52:37.192Z,11.50
2022-11-09T17:55:04.179Z,11.50
2022-11-09T17:57:31.503Z,11.50
2022-11-09T17:59:59.635Z,11.40
2022-11-09T18:02:26.492Z,11.40
2022-11-09T18:04:53.318Z,11.40
2022-11-09T18:07:20.119Z,11.40
2022-11-09T18:09:47.000Z,11.30
2022-11-09T18:12:16.470Z,11.30
2022-11-09T18:14:43.401Z,11.30
2022-11-09T18:17:10.296Z,11.20
2022-11-09T18:19:37.340Z,11.20
2022-11-09T18:22:06.545Z,11.10
2022-11-09T18:24:36.819Z,11.20
2022-11-09T18:27:04.857Z,11.10
2022-11-09T18:29:31.689Z,11.10
2022-11-09T18:31:58.522Z,11.10
2022-11-09T18:34:25.315Z,11.10
2022-11-09T18:36:53.961Z,11.20
2022-11-09T18:39:20.857Z,11.20
2022-11-09T18:41:47.724Z,11.20
2022-11-09T18:44:14.554Z,11.20
2022-11-09T18:46:41.385Z,11.20
2022-11-09T18:49:13.927Z,11.20
2022-11-09T18:51:41.237Z,11.10
2022-11-09T18:54:08.033Z,11.20
2022-11-09T18:56:34.952Z,11.10
2022-11-09T18:59:01.828Z,11.10
2022-11-09T19:01:28.673Z,11.10
2022-11-09T19:03:59.357Z,11.10
2022-11-09T19:06:26.637Z,11.10
2022-11-09T19:09:12.111Z,11.10
2022-11-09T19:11:39.020Z,11.10
2022-11-09T19:14:05.975Z,11.10
2022-11-09T19:16:32.839Z,11.10
2022-11-09T19:18:59.705Z,11.10
2022-11-09T19:21:36.914Z,11.10
2022-11-09T19:24:04.116Z,11.10
2022-11-09T19:26:31.035Z,11.10
2022-11-09T19:28:58.086Z,11.10
2022-11-09T19:31:25.180Z,11.20
2022-11-09T19:33:52.232Z,11.20
2022-11-09T19:36:34.836Z,11.20
2022-11-09T19:39:01.881Z,11.20
2022-11-09T19:41:29.428Z,11.20
2022-11-09T19:43:58.705Z,11.20
2022-11-09T19:46:26.639Z,11.20
2022-11-09T19:48:53.482Z,11.30
2022-11-09T19:51:20.493Z,11.30
2022-11-09T19:53:54.843Z,11.20
2022-11-09T19:56:22.467Z,11.30
2022-11-09T19:58:50.431Z,11.20
2022-11-09T20:01:17.573Z,11.20
2022-11-09T20:03:44.485Z,11.20
2022-11-09T20:06:11.311Z,11.10
2022-11-09T20:08:38.247Z,11.10
2022-11-09T20:11:06.322Z,11.10
2022-11-09T20:13:33.242Z,11.10
2022-11-09T20:16:08.068Z,11.00
2022-11-09T20:18:36.088Z,11.00
2022-11-09T20:21:03.547Z,11.00
2022-11-09T20:23:30.342Z,11.00
2022-11-09T20:26:07.326Z,11.00
2022-11-09T20:28:34.142Z,11.00
2022-11-09T20:31:01.145Z,11.00
2022-11-09T20:33:27.976Z,10.90
2022-11-09T20:35:55.315Z,10.90
2022-11-09T20:38:22.700Z,10.90
2022-11-09T20:40:57.157Z,10.90
2022-11-09T20:43:24.327Z,10.80
2022-11-09T20:45:51.226Z,10.80
2022-11-09T20:48:46.537Z,10.80
2022-11-09T20:51:06.390Z,10.80
2022-11-09T20:53:33.336Z,10.70
2022-11-09T20:56:00.152Z,10.70
2022-11-09T20:58:27.596Z,10.60
2022-11-09T21:01:04.497Z,10.60
2022-11-09T21:03:31.588Z,10.60
2022-11-09T21:05:59.520Z,10.60
2022-11-09T21:08:26.580Z,10.60
2022-11-09T21:10:53.650Z,10.60
2022-11-09T21:13:20.743Z,10.60
2022-11-09T21:15:47.895Z,10.60
2022-11-09T21:18:14.837Z,10.60
2022-11-09T21:20:41.713Z,10.60
2022-11-09T21:23:13.230Z,10.50
2022-11-09T21:25:59.498Z,10.50
2022-11-09T21:28:45.126Z,10.40
2022-11-09T21:31:12.120Z,10.40
2022-11-09T21:33:38.976Z,10.40
2022-11-09T21:36:13.567Z,10.40
2022-11-09T21:38:40.369Z,10.40
2022-11-09T21:41:26.544Z,10.30
2022-11-09T21:43:54.323Z,10.40
2022-11-09T21:46:21.945Z,10.30
2022-11-09T21:48:49.199Z,10.40
2022-11-09T21:51:16.512Z,10.40
2022-11-09T21:53:43.281Z,10.40
2022-11-09T21:56:10.144Z,10.50
2022-11-09T21:58:36.946Z,10.50
2022-11-09T22:01:05.063Z,10.50
2022-11-09T22:03:32.797Z,10.60
2022-11-09T22:05:59.760Z,10.60
2022-11-09T22:08:26.761Z,10.60
2022-11-09T22:10:53.614Z,10.60
2022-11-09T22:13:39.024Z,10.60
2022-11-09T22:16:06.447Z,10.60
2022-11-09T22:18:52.540Z,10.50
2022-11-09T22:21:19.937Z,10.50
2022-11-09T22:23:46.790Z,10.50
2022-11-09T22:26:13.892Z,10.40
2022-11-09T22:28:40.833Z,10.40
2022-11-09T22:31:08.285Z,10.40
2022-11-09T22:33:35.254Z,10.30
2022-11-09T22:36:03.763Z,10.30
2022-11-09T22:38:33.867Z,10.20
2022-11-09T22:41:04.677Z,10.20
2022-11-09T22:43:35.653Z,10.20
2022-11-09T22:46:15.783Z,10.10
2022-11-09T22:48:43.343Z,10.10
2022-11-09T22:51:12.300Z,10.10
2022-11-09T22:53:39.131Z,10.00
2022-11-09T22:56:06.229Z,10.00
2022-11-09T22:58:33.062Z,10.00
2022-11-09T23:01:14.991Z,10.00
2022-11-09T23:03:42.219Z,10.00
2022-11-09T23:06:14.103Z,10.00
2022-11-09T23:08:41.282Z,10.00
2022-11-09T23:11:14.534Z,10.00
2022-11-09T23:13:41.587Z,10.00
2022-11-09T23:16:09.256Z,10.00
2022-11-09T23:18:54.796Z,10.00
2022-11-09T23:21:21.607Z,10.00
2022-11-09T23:23:48.616Z,9.90
2022-11-09T23:26:15.469Z,9.90
2022-11-09T23:28:42.353Z,9.90
2022-11-09T23:31:11.067Z,9.90
2022-11-09T23:33:37.945Z,9.90
2022-11-09T23:36:05.421Z,9.90
2022-11-09T23:38:33.729Z,9.90
2022-11-09T23:41:09.840Z,9.90
2022-11-09T23:43:37.051Z,9.90
2022-11-09T23:46:14.133Z,10.00
2022-11-09T23:48:41.204Z,9.90
2022-11-09T23:51:08.528Z,9.90
2022-11-09T23:53:35.875Z,9.90
2022-11-09T23:56:04.448Z,9.90
2022-11-09T23:58:31.293Z,9.90
